Time;durP1;ratioP1;P1;durP2;ratioP2;P2;SDS_P1;SDS_P2;PMS_P1;PMS_P2;Temp;Humidity;BMP_temperature;BMP_pressure;BME280_temperature;BME280_humidity;BME280_pressure;Samples;Min_cycle;Max_cycle;Signal;HPM_P1;HPM_P2
2022/06/25 00:01:49;;;;;;;8.35;5.45;;;;;;;17.61;66.15;101082.45;1712964;82;21102;-94
2022/06/25 00:07:07;;;;;;;7.97;5.47;;;;;;;17.56;66.28;101082.43;1692796;82;21120;-94
2022/06/25 00:09:34;;;;;;;8.70;5.75;;;;;;;17.53;66.35;101093.51;1717188;82;21161;-94
2022/06/25 00:14:47;;;;;;;6.60;5.20;;;;;;;17.47;66.51;101097.05;1700036;83;21393;-93
2022/06/25 00:17:14;;;;;;;11.12;6.05;;;;;;;17.43;66.59;101095.27;1688956;81;21064;-94
2022/06/25 00:19:41;;;;;;;7.45;5.47;;;;;;;17.41;66.61;101086.40;1707817;83;21907;-93
2022/06/25 00:22:07;;;;;;;6.55;5.37;;;;;;;17.37;66.66;101091.27;1689938;83;21918;-93
2022/06/25 00:24:37;;;;;;;9.55;5.70;;;;;;;17.35;66.74;101098.37;1711719;82;21065;-93
2022/06/25 00:27:03;;;;;;;7.12;5.35;;;;;;;17.32;66.83;101093.91;1697677;82;21077;-94
2022/06/25 00:29:30;;;;;;;8.35;6.20;;;;;;;17.30;66.98;101095.67;1709425;82;21173;-94
2022/06/25 00:31:57;;;;;;;7.90;5.85;;;;;;;17.26;66.94;101098.77;1689927;82;21055;-94
2022/06/25 00:34:25;;;;;;;7.25;5.65;;;;;;;17.23;67.12;101092.55;1684842;82;21066;-93
2022/06/25 00:36:53;;;;;;;16.65;6.72;;;;;;;17.20;67.19;101099.20;1694127;82;22033;-92
2022/06/25 00:39:19;;;;;;;9.40;6.87;;;;;;;17.18;67.28;101096.53;1694666;83;21070;-93
2022/06/25 00:41:46;;;;;;;12.20;7.28;;;;;;;17.13;67.37;101101.39;1652008;83;21084;-94
2022/06/25 00:44:16;;;;;;;7.22;6.20;;;;;;;17.09;67.52;101098.71;1650355;84;21081;-94
2022/06/25 00:46:48;;;;;;;11.60;7.28;;;;;;;17.06;67.63;101097.39;1695471;83;21134;-93
2022/06/25 00:49:15;;;;;;;9.45;6.62;;;;;;;17.02;67.75;101099.56;1706549;83;21775;-93
2022/06/25 00:51:42;;;;;;;12.05;7.20;;;;;;;16.98;67.82;101096.45;1685359;82;21070;-94
2022/06/25 00:54:36;;;;;;;10.28;6.95;;;;;;;16.96;67.98;101101.33;1692506;82;21516;-94
2022/06/25 00:57:05;;;;;;;7.05;6.28;;;;;;;16.95;68.12;101104.85;1705907;82;21692;-93
2022/06/25 00:59:38;;;;;;;11.00;7.00;;;;;;;16.89;68.15;101100.39;1707235;82;21466;-93
2022/06/25 01:02:09;;;;;;;10.40;7.05;;;;;;;16.84;68.25;101100.84;1704032;82;23108;-95
2022/06/25 01:04:38;;;;;;;11.33;6.87;;;;;;;16.81;68.41;101096.79;1706648;83;21063;-92
2022/06/25 01:07:07;;;;;;;8.73;6.75;;;;;;;16.78;68.48;101105.66;1681358;82;21088;-94
2022/06/25 01:09:38;;;;;;;13.68;7.45;;;;;;;16.75;68.60;101104.75;1655948;83;21171;-93
2022/06/25 01:12:07;;;;;;;11.22;7.87;;;;;;;16.72;68.68;101108.25;1694156;84;21521;-94
2022/06/25 01:14:33;;;;;;;14.60;7.62;;;;;;;16.71;68.77;101110.48;1706987;82;22569;-94
2022/06/25 01:17:12;;;;;;;12.13;6.83;;;;;;;16.69;68.86;101113.58;1690238;82;21130;-93
2022/06/25 01:19:38;;;;;;;10.13;7.40;;;;;;;16.61;68.91;101097.59;1679476;82;21067;-95
2022/06/25 01:22:06;;;;;;;11.57;7.03;;;;;;;16.64;69.03;101110.88;1706791;83;21579;-94
2022/06/25 01:24:38;;;;;;;10.98;7.58;;;;;;;16.63;69.09;101116.17;1701440;82;21094;-94
2022/06/25 01:27:16;;;;;;;8.53;7.57;;;;;;;16.60;69.20;101107.75;1692676;82;21952;-92
2022/06/25 01:29:45;;;;;;;9.58;7.03;;;;;;;16.60;69.27;101110.86;1706642;82;21134;-93
2022/06/25 01:32:15;;;;;;;8.90;7.35;;;;;;;16.58;69.33;101108.64;1687530;82;21057;-93
2022/06/25 01:34:42;;;;;;;14.07;6.85;;;;;;;16.57;69.32;101111.70;1701867;82;21078;-93
2022/06/25 01:37:08;;;;;;;10.70;6.78;;;;;;;16.55;69.36;101109.94;1706375;82;21318;-94
2022/06/25 01:39:35;;;;;;;12.10;6.92;;;;;;;16.53;69.44;101123.20;1687991;82;21786;-93
2022/06/25 01:42:03;;;;;;;10.43;6.70;;;;;;;16.50;69.49;101119.22;1706771;82;21594;-93
2022/06/25 01:44:32;;;;;;;12.07;6.60;;;;;;;16.48;69.54;101116.55;1681881;82;21088;-93
2022/06/25 01:46:59;;;;;;;14.45;6.95;;;;;;;16.45;69.55;101111.20;1687205;84;21078;-92
2022/06/25 01:49:26;;;;;;;9.98;6.42;;;;;;;16.43;69.61;101110.30;1706989;82;22289;-93
2022/06/25 01:51:55;;;;;;;13.88;7.50;;;;;;;16.42;69.69;101111.61;1706105;82;21119;-95
2022/06/25 01:54:24;;;;;;;8.93;6.12;;;;;;;16.39;69.76;101123.12;1686352;82;21069;-95
2022/06/25 01:56:51;;;;;;;10.13;6.62;;;;;;;16.39;69.83;101124.45;1702428;83;21078;-95
2022/06/25 01:59:17;;;;;;;12.10;6.42;;;;;;;16.36;69.83;101121.77;1707157;82;21094;-95
2022/06/25 02:01:44;;;;;;;8.53;6.70;;;;;;;16.34;69.86;101123.52;1706836;82;21130;-95
2022/06/25 02:04:14;;;;;;;7.33;6.60;;;;;;;16.32;69.94;101126.61;1674246;82;21756;-95
2022/06/25 02:06:41;;;;;;;10.18;6.75;;;;;;;16.32;69.98;101122.63;1668880;83;21349;-96
2022/06/25 02:09:09;;;;;;;7.33;6.47;;;;;;;16.31;69.97;101126.14;1700271;82;21049;-95
2022/06/25 02:11:38;;;;;;;9.33;6.58;;;;;;;16.28;70.00;101120.38;1683708;84;21055;-96
2022/06/25 02:14:12;;;;;;;10.15;6.10;;;;;;;16.29;70.02;101123.50;1705190;82;21094;-94
2022/06/25 02:16:39;;;;;;;11.20;6.90;;;;;;;16.28;70.07;101128.34;1682118;84;22040;-94
2022/06/25 02:19:06;;;;;;;8.05;6.60;;;;;;;16.28;70.13;101128.34;1708754;82;21075;-94
2022/06/25 02:21:32;;;;;;;9.00;6.65;;;;;;;16.29;70.17;101131.47;1707815;82;21771;-94
2022/06/25 02:23:59;;;;;;;8.18;6.22;;;;;;;16.30;70.27;101131.02;1677978;83;21066;-94
2022/06/25 02:26:26;;;;;;;8.05;5.85;;;;;;;16.31;70.24;101126.14;1693611;84;21109;-94
2022/06/25 02:28:53;;;;;;;9.00;6.22;;;;;;;16.32;70.30;101134.12;1651067;85;23270;-94
2022/06/25 02:31:26;;;;;;;7.95;6.08;;;;;;;16.32;70.24;101132.80;1669530;82;21086;-95
2022/06/25 02:33:51;;;;;;;8.15;5.95;;;;;;;16.32;70.26;101130.59;1683153;82;21105;-95
2022/06/25 02:36:20;;;;;;;8.95;5.70;;;;;;;16.32;70.19;101130.14;1698389;82;21091;-94
2022/06/25 02:38:46;;;;;;;6.85;5.70;;;;;;;16.25;70.21;101117.69;1686719;84;21118;-95
2022/06/25 02:41:13;;;;;;;9.03;5.87;;;;;;;16.35;70.30;101135.03;1686298;83;22097;-94
2022/06/25 02:43:44;;;;;;;12.75;6.55;;;;;;;16.36;70.28;101132.39;1706286;83;20983;-94
2022/06/25 02:46:17;;;;;;;10.75;7.10;;;;;;;16.28;70.25;101116.39;1703249;83;21135;-94
2022/06/25 02:48:48;;;;;;;8.90;6.83;;;;;;;16.38;70.27;101123.11;1706707;83;21060;-94
2022/06/25 02:51:14;;;;;;;12.15;6.90;;;;;;;16.43;70.28;101130.23;1687235;84;21071;-93
2022/06/25 02:53:41;;;;;;;10.90;6.30;;;;;;;16.47;70.37;101125.83;1671093;82;21841;-94
2022/06/25 02:58:56;;;;;;;15.40;6.92;;;;;;;16.62;70.37;101123.27;1692800;82;21055;-93
2022/06/25 03:01:27;;;;;;;10.20;6.87;;;;;;;16.69;70.37;101131.73;1708634;82;21308;-94
2022/06/25 03:03:54;;;;;;;15.88;6.78;;;;;;;16.77;70.33;101134.87;1687680;82;21400;-93
2022/06/25 03:06:21;;;;;;;9.08;6.80;;;;;;;16.84;70.30;101140.27;1691123;83;21770;-92
2022/06/25 03:08:48;;;;;;;9.48;6.42;;;;;;;16.97;70.31;101135.91;1671669;84;21029;-94
2022/06/25 03:11:15;;;;;;;9.23;6.75;;;;;;;17.05;70.22;101131.95;1647553;86;20990;-93
2022/06/25 03:13:42;;;;;;;12.10;6.90;;;;;;;17.14;70.12;101128.45;1706060;83;21570;-94
2022/06/25 03:16:11;;;;;;;7.50;6.10;;;;;;;17.23;70.08;101131.12;1706391;82;21050;-94
2022/06/25 03:18:41;;;;;;;6.95;5.45;;;;;;;17.29;69.95;101132.05;1706672;82;21772;-94
2022/06/25 03:21:08;;;;;;;7.47;5.62;;;;;;;17.39;69.87;101131.63;1674024;82;21079;-95
2022/06/25 03:23:35;;;;;;;10.28;5.62;;;;;;;17.52;69.86;101134.34;1692378;82;21103;-95
2022/06/25 03:26:05;;;;;;;7.90;5.65;;;;;;;17.65;69.76;101131.69;1696878;83;21070;-94
2022/06/25 03:28:31;;;;;;;7.55;5.85;;;;;;;17.81;69.78;101131.71;1662659;85;21096;-94
2022/06/25 03:31:00;;;;;;;6.78;5.47;;;;;;;18.37;70.85;101131.31;1689562;83;21309;-95
2022/06/25 03:33:29;;;;;;;11.22;5.80;;;;;;;19.71;71.18;101134.41;1676826;84;21106;-96
2022/06/25 03:36:01;;;;;;;9.58;5.15;;;;;;;20.82;70.20;101129.94;1666012;83;21114;-96
2022/06/25 03:38:27;;;;;;;7.15;5.55;;;;;;;22.14;68.61;101130.77;1658814;83;21535;-94
2022/06/25 03:41:32;;;;;;;9.18;5.45;;;;;;;22.38;65.13;101136.20;1704333;82;21146;-94
2022/06/25 03:43:23;;;;;;;5.60;4.92;;;;;;;22.00;63.82;101131.45;1699084;82;21834;-94
2022/06/25 03:45:51;;;;;;;7.08;5.03;;;;;;;21.68;63.49;101140.44;1704627;82;21063;-94
2022/06/25 03:48:17;;;;;;;7.40;5.67;;;;;;;21.57;63.46;101137.46;1704526;82;21087;-94
2022/06/25 03:50:44;;;;;;;6.10;4.67;;;;;;;21.64;63.54;101138.72;1708786;82;21095;-93
2022/06/25 03:53:13;;;;;;;5.85;5.15;;;;;;;22.21;63.88;101135.59;1707559;82;21006;-94
2022/06/25 03:55:40;;;;;;;6.87;5.03;;;;;;;23.15;63.86;101121.80;1708334;82;22026;-94
2022/06/25 03:58:11;;;;;;;8.33;5.20;;;;;;;25.21;63.89;101130.94;1707792;82;21074;-93
2022/06/25 04:00:38;;;;;;;7.17;4.47;;;;;;;27.47;61.52;101132.29;1705208;82;21150;-94
2022/06/25 04:03:23;;;;;;;7.08;4.33;;;;;;;29.37;58.58;101129.97;1673219;84;21775;-95
2022/06/25 04:05:40;;;;;;;6.00;4.12;;;;;;;31.01;55.96;101132.16;1685722;82;21039;-95
2022/06/25 04:08:10;;;;;;;4.85;3.67;;;;;;;32.48;53.30;101132.33;1698161;83;21757;-96
2022/06/25 04:10:41;;;;;;;6.50;4.37;;;;;;;33.79;51.12;101130.92;1675845;84;21069;-95
2022/06/25 04:13:08;;;;;;;5.00;4.50;;;;;;;34.87;48.43;101139.94;1637503;85;21074;-95
2022/06/25 04:15:35;;;;;;;5.72;3.98;;;;;;;35.73;46.38;101141.92;1663016;84;21596;-95
2022/06/25 04:18:08;;;;;;;9.25;4.40;;;;;;;36.56;44.82;101146.53;1640465;85;21073;-95
2022/06/25 04:20:41;;;;;;;5.25;3.60;;;;;;;37.38;43.10;101145.55;1668252;84;22444;-96
2022/06/25 04:23:07;;;;;;;5.42;3.62;;;;;;;38.14;41.41;101153.04;1645302;85;21534;-95
2022/06/25 04:25:34;;;;;;;5.45;3.47;;;;;;;38.85;39.95;101156.05;1677461;84;21148;-94
2022/06/25 04:30:46;;;;;;;5.42;3.08;;;;;;;39.81;37.03;101159.36;1677159;84;21094;-95
2022/06/25 04:33:15;;;;;;;9.10;3.22;;;;;;;40.25;35.80;101165.91;1673345;84;21794;-95
2022/06/25 04:35:45;;;;;;;6.67;3.55;;;;;;;40.61;34.73;101166.53;1659324;85;21104;-95
2022/06/25 04:38:19;;;;;;;3.75;3.37;;;;;;;41.14;34.04;101162.86;1678338;84;21595;-96
2022/06/25 04:40:46;;;;;;;4.03;3.12;;;;;;;41.55;33.08;101149.60;1652769;84;22058;-95
2022/06/25 04:43:13;;;;;;;5.92;3.60;;;;;;;42.17;31.99;101165.53;1681979;84;21666;-94
2022/06/25 04:45:40;;;;;;;3.72;3.02;;;;;;;42.45;30.89;101163.52;1666308;84;21452;-94
2022/06/25 04:48:06;;;;;;;6.42;3.08;;;;;;;42.68;30.10;101168.91;1654719;84;21065;-93
2022/06/25 04:50:36;;;;;;;6.47;3.05;;;;;;;42.80;29.34;101160.33;1676021;83;21336;-93
2022/06/25 05:05:12;;;;;;;;;;;;;;;;;;;;;
2022/06/25 05:08:07;;;;;;;3.67;2.20;;;;;;;44.73;25.55;101182.68;1509637;93;21140;-94
2022/06/25 05:10:48;;;;;;;4.62;2.80;;;;;;;45.07;25.03;101184.38;1419922;98;21229;-92
2022/06/25 05:24:52;;;;;;;;;;;;;;;;;;;;;
2022/06/25 05:34:58;;;;;;;4.72;2.58;;;;;;;46.43;21.78;101199.84;1267951;109;22936;-92
2022/06/25 05:37:41;;;;;;;3.92;2.42;;;;;;;46.58;21.40;101198.52;1273127;109;21234;-92
2022/06/25 05:40:09;;;;;;;5.85;2.55;;;;;;;46.58;21.06;101199.05;1288772;109;21758;-93
2022/06/25 05:42:36;;;;;;;10.40;3.50;;;;;;;46.29;21.02;101190.90;1322344;105;21882;-92
2022/06/25 05:45:06;;;;;;;3.80;3.15;;;;;;;45.29;20.31;101189.69;1390210;100;21203;-92
2022/06/25 05:47:33;;;;;;;4.92;3.30;;;;;;;42.66;20.59;101188.11;1392840;100;23008;-92
2022/06/25 05:50:01;;;;;;;5.45;3.00;;;;;;;39.80;21.69;101183.81;1407880;100;21713;-93
2022/06/25 05:52:28;;;;;;;4.17;3.10;;;;;;;37.52;23.16;101173.23;1393859;100;21135;-92
2022/06/25 05:54:54;;;;;;;9.25;3.40;;;;;;;35.81;24.38;101183.33;1415332;100;21289;-93
2022/06/25 05:57:21;;;;;;;3.65;3.20;;;;;;;34.21;25.72;101183.64;1413046;99;21222;-92
2022/06/25 05:59:48;;;;;;;4.75;3.72;;;;;;;32.98;26.88;101187.93;1416552;99;21828;-92
2022/06/25 06:02:16;;;;;;;4.72;3.72;;;;;;;31.93;28.12;101188.22;1469944;90;21118;-91
2022/06/25 06:05:24;;;;;;;10.20;3.45;;;;;;;30.93;29.13;101186.05;1574753;88;21169;-91
2022/06/25 06:07:40;;;;;;;8.98;3.58;;;;;;;30.03;30.30;101191.94;1588804;88;21162;-90
2022/06/25 06:10:08;;;;;;;7.65;4.03;;;;;;;29.25;31.64;101192.45;1578542;88;21122;-91
2022/06/25 06:12:37;;;;;;;3.98;3.62;;;;;;;28.65;32.41;101192.87;1610029;87;22043;-91
2022/06/25 06:15:05;;;;;;;5.58;4.47;;;;;;;28.14;33.41;101192.28;1634370;86;21235;-91
2022/06/25 06:17:32;;;;;;;5.70;3.65;;;;;;;27.57;33.84;101190.45;1597557;88;21563;-91
2022/06/25 06:19:58;;;;;;;4.72;4.22;;;;;;;27.11;34.75;101198.47;1605450;87;21646;-91
2022/06/25 06:22:26;;;;;;;9.25;4.62;;;;;;;26.80;35.42;101200.03;1604355;88;21609;-92
2022/06/25 06:24:53;;;;;;;4.70;3.67;;;;;;;26.54;36.14;101204.96;1603993;88;21798;-91
2022/06/25 06:27:21;;;;;;;14.13;3.65;;;;;;;26.33;36.77;101205.23;1598007;89;21118;-91
2022/06/25 06:29:48;;;;;;;4.30;3.90;;;;;;;26.10;37.25;101204.17;1591838;89;21065;-92
2022/06/25 06:32:17;;;;;;;4.12;3.65;;;;;;;25.88;37.75;101210.67;1634596;85;21101;-91
2022/06/25 06:34:44;;;;;;;5.20;4.08;;;;;;;25.63;38.34;101204.30;1710621;82;21426;-91
2022/06/25 06:37:10;;;;;;;4.65;3.87;;;;;;;25.45;38.97;101209.77;1713418;82;22191;-90
2022/06/25 06:39:41;;;;;;;8.08;4.15;;;;;;;25.31;39.55;101214.22;1713769;82;21078;-91
2022/06/25 06:42:09;;;;;;;5.35;3.50;;;;;;;25.20;39.94;101214.49;1713888;82;21122;-91
2022/06/25 06:44:34;;;;;;;9.00;5.72;;;;;;;25.09;40.39;101213.44;1713373;82;21119;-91
2022/06/25 06:47:04;;;;;;;4.95;4.10;;;;;;;24.99;40.87;101210.13;1710140;82;21066;-92
2022/06/25 06:49:34;;;;;;;5.70;3.87;;;;;;;24.93;41.03;101213.00;1713535;82;21892;-91
2022/06/25 06:52:03;;;;;;;5.25;3.90;;;;;;;24.85;41.38;101212.30;1707655;83;21074;-92
2022/06/25 06:54:36;;;;;;;5.62;4.08;;;;;;;24.81;41.76;101218.27;1714166;81;21085;-91
2022/06/25 06:57:09;;;;;;;7.22;4.20;;;;;;;24.76;42.10;101215.27;1705997;82;21078;-90
2022/06/25 06:59:59;;;;;;;7.10;3.80;;;;;;;24.77;42.50;101219.71;1709073;82;21082;-92
2022/06/25 07:02:52;;;;;;;8.60;3.90;;;;;;;24.79;42.93;101211.12;1618818;85;21126;-92
2022/06/25 07:05:18;;;;;;;6.85;3.90;;;;;;;24.82;42.89;101221.83;1577913;90;21541;-91
2022/06/25 07:07:49;;;;;;;6.45;4.10;;;;;;;24.76;43.07;101217.96;1585573;88;21116;-92
2022/06/25 07:10:32;;;;;;;7.58;3.77;;;;;;;24.77;43.49;101221.06;1596784;88;21151;-93
2022/06/25 07:12:58;;;;;;;5.17;4.00;;;;;;;24.79;43.75;101224.12;1597667;88;21142;-91
2022/06/25 07:15:29;;;;;;;5.42;3.65;;;;;;;24.84;43.93;101225.36;1596817;88;21742;-92
2022/06/25 07:21:02;;;;;;;6.30;4.35;;;;;;;24.79;43.90;101218.73;1502808;92;21223;-93
2022/06/25 07:23:34;;;;;;;5.47;3.77;;;;;;;24.77;44.08;101216.55;1526548;91;21260;-93
2022/06/25 07:26:26;;;;;;;7.87;4.05;;;;;;;24.83;44.38;101224.92;1529973;92;21236;-91
2022/06/25 07:28:53;;;;;;;4.97;3.83;;;;;;;24.83;44.74;101204.73;1522540;92;21894;-91
2022/06/25 07:31:25;;;;;;;5.70;3.80;;;;;;;24.94;44.49;101220.60;1529937;92;22006;-92
2022/06/25 07:33:50;;;;;;;6.20;3.70;;;;;;;24.95;44.77;101216.53;1533013;91;21344;-91
2022/06/25 07:36:17;;;;;;;5.33;3.70;;;;;;;24.99;44.99;101218.20;1530154;92;21280;-92
2022/06/25 07:38:47;;;;;;;7.30;3.87;;;;;;;25.06;45.01;101217.59;1534504;92;21143;-91
2022/06/25 07:41:25;;;;;;;7.90;4.25;;;;;;;25.11;45.02;101216.09;1527804;90;21817;-96
2022/06/25 07:43:54;;;;;;;6.78;3.75;;;;;;;25.14;45.27;101215.55;1503030;93;21135;-91
2022/06/25 07:46:24;;;;;;;5.35;3.83;;;;;;;25.09;45.35;101205.36;1522225;92;21154;-88
2022/06/25 07:48:53;;;;;;;4.75;3.98;;;;;;;25.20;45.55;101220.75;1522615;92;21187;-92
2022/06/25 07:54:05;;;;;;;5.05;3.60;;;;;;;25.27;45.63;101213.90;1527697;92;21825;-92
2022/06/25 07:56:35;;;;;;;5.47;4.12;;;;;;;25.27;45.70;101215.25;1533017;91;21523;-91
2022/06/25 07:59:00;;;;;;;6.35;5.70;;;;;;;25.30;45.90;101221.44;1528670;90;21197;-91
2022/06/25 08:01:29;;;;;;;6.03;3.70;;;;;;;25.35;45.84;101214.08;1532071;92;21414;-91
2022/06/25 08:03:56;;;;;;;4.17;3.80;;;;;;;25.40;45.95;101220.22;1532575;91;21178;-92
2022/06/25 08:06:26;;;;;;;3.75;3.45;;;;;;;25.50;46.13;101218.13;1533032;91;22024;-92
2022/06/25 08:08:51;;;;;;;8.50;7.70;;;;;;;25.52;45.90;101213.58;1562373;86;21079;-91
2022/06/25 08:11:21;;;;;;;4.30;3.92;;;;;;;25.55;46.16;101212.15;1635814;87;21092;-92
2022/06/25 08:13:48;;;;;;;6.83;5.45;;;;;;;25.64;46.37;101208.30;1635586;86;21602;-93
2022/06/25 08:16:33;;;;;;;4.72;3.77;;;;;;;25.74;46.18;101215.64;1646365;84;20990;-92
2022/06/25 08:19:00;;;;;;;5.87;3.70;;;;;;;25.77;45.81;101215.52;1705763;82;21762;-93
2022/06/25 08:21:28;;;;;;;6.10;3.80;;;;;;;25.84;45.84;101214.88;1706123;82;21052;-94
2022/06/25 08:24:24;;;;;;;4.10;3.47;;;;;;;25.92;45.83;101212.85;1687623;83;21083;-92
2022/06/25 08:26:54;;;;;;;5.72;3.62;;;;;;;25.97;45.10;101214.47;1623917;85;21052;-92
2022/06/25 08:29:24;;;;;;;3.65;3.35;;;;;;;25.98;44.95;101209.98;1651716;85;21101;-93
2022/06/25 08:31:53;;;;;;;3.45;3.15;;;;;;;26.03;44.92;101216.09;1633690;85;22545;-90
2022/06/25 08:37:50;;;;;;;5.08;3.17;;;;;;;26.16;44.63;101215.23;1581920;86;21097;-93
2022/06/25 08:40:23;;;;;;;3.10;2.60;;;;;;;26.22;44.20;101216.84;1650255;85;21122;-92
2022/06/25 08:42:49;;;;;;;3.98;3.58;;;;;;;26.24;44.20;101220.37;1649192;86;21168;-93
2022/06/25 08:45:17;;;;;;;3.37;3.12;;;;;;;26.31;44.27;101219.24;1604719;86;21087;-93
2022/06/25 08:47:47;;;;;;;7.05;3.00;;;;;;;26.35;44.03;101210.11;1666864;85;21016;-93
2022/06/25 08:50:18;;;;;;;4.33;3.92;;;;;;;26.46;43.87;101214.67;1656126;85;21094;-93
2022/06/25 08:53:02;;;;;;;6.28;3.20;;;;;;;26.52;43.56;101217.63;1654582;85;21802;-94
2022/06/25 08:55:36;;;;;;;3.50;2.93;;;;;;;26.57;43.38;101220.59;1611767;86;21170;-92
2022/06/25 08:58:03;;;;;;;6.83;2.85;;;;;;;26.60;43.18;101210.65;1649001;85;21786;-93
2022/06/25 09:00:31;;;;;;;3.62;3.20;;;;;;;26.64;43.11;101214.56;1672874;84;21621;-93
2022/06/25 09:03:00;;;;;;;3.05;2.75;;;;;;;26.68;43.04;101212.64;1651467;84;21090;-94
2022/06/25 09:05:34;;;;;;;5.65;3.25;;;;;;;26.72;42.81;101217.86;1665357;84;21092;-93
2022/06/25 09:08:05;;;;;;;4.95;3.10;;;;;;;26.78;42.62;101211.84;1649510;85;21102;-92
2022/06/25 09:10:41;;;;;;;3.02;2.55;;;;;;;26.84;42.68;101212.96;1644960;85;21884;-92
2022/06/25 09:13:05;;;;;;;3.10;2.80;;;;;;;26.92;42.61;101217.17;1633444;86;21169;-92
2022/06/25 09:15:39;;;;;;;4.65;2.87;;;;;;;26.97;42.39;101212.94;1623207;86;21122;-92
2022/06/25 09:18:14;;;;;;;4.58;2.95;;;;;;;26.99;41.77;101211.09;1652180;85;21967;-88
2022/06/25 09:20:57;;;;;;;8.90;2.80;;;;;;;26.98;41.37;101203.91;1649595;86;21095;-91
2022/06/25 09:23:24;;;;;;;12.55;4.05;;;;;;;27.01;41.36;101202.91;1658586;85;21777;-89
2022/06/25 09:26:04;;;;;;;5.70;2.90;;;;;;;27.06;41.25;101200.45;1641900;85;21095;-90
2022/06/25 09:28:35;;;;;;;5.70;2.80;;;;;;;27.10;41.03;101199.86;1637858;86;21119;-87
2022/06/25 09:31:03;;;;;;;2.95;2.70;;;;;;;27.16;40.83;101199.66;1659245;85;21031;-89
2022/06/25 09:33:31;;;;;;;3.00;2.58;;;;;;;27.19;40.75;101206.28;1633928;86;21035;-88
2022/06/25 09:35:58;;;;;;;5.28;2.30;;;;;;;27.23;40.17;101205.23;1655126;86;21739;-88
2022/06/25 09:38:29;;;;;;;4.95;2.58;;;;;;;27.22;39.94;101198.08;1673523;84;21391;-87
2022/06/25 09:41:00;;;;;;;5.15;2.40;;;;;;;27.28;39.85;101209.16;1653467;85;21504;-92
2022/06/25 09:49:19;;;;;;;;;;;;;;;;;;;;;
2022/06/25 09:52:33;;;;;;;2.60;2.40;;;;;;;27.49;39.25;101189.41;1534007;90;21141;-94
2022/06/25 09:54:18;;;;;;;4.62;2.70;;;;;;;27.59;39.00;101190.40;1506832;91;21123;-95
2022/06/25 09:56:44;;;;;;;3.60;2.30;;;;;;;27.64;38.50;101195.17;1569991;90;21706;-94
2022/06/25 09:59:11;;;;;;;5.65;2.30;;;;;;;27.66;38.01;101192.80;1566895;90;21205;-93
2022/06/25 10:01:40;;;;;;;5.70;2.10;;;;;;;27.67;37.86;101195.06;1565592;90;21183;-96
2022/06/25 10:04:06;;;;;;;3.25;2.37;;;;;;;27.68;37.90;101192.27;1567287;90;21809;-94
2022/06/25 10:06:36;;;;;;;5.22;2.62;;;;;;;27.73;38.17;101198.38;1569886;90;21146;-95
2022/06/25 10:09:06;;;;;;;4.47;2.67;;;;;;;27.78;37.71;101198.22;1571547;90;21145;-94
2022/06/25 10:11:34;;;;;;;3.15;2.67;;;;;;;27.78;37.39;101192.81;1570235;90;21159;-93
2022/06/25 10:14:01;;;;;;;3.85;2.22;;;;;;;27.79;37.45;101196.39;1566244;90;21130;-94
2022/06/25 10:16:29;;;;;;;6.00;2.58;;;;;;;27.81;37.36;101195.37;1566174;90;21995;-95
2022/06/25 10:18:58;;;;;;;5.20;2.50;;;;;;;27.85;37.43;101188.89;1547930;91;21155;-94
2022/06/25 10:21:25;;;;;;;2.92;2.65;;;;;;;27.94;37.63;101193.57;1572123;89;21132;-93
2022/06/25 10:23:55;;;;;;;2.75;2.50;;;;;;;27.99;37.35;101197.85;1651831;85;21240;-94
2022/06/25 10:26:21;;;;;;;3.10;2.47;;;;;;;28.01;37.47;101205.91;1656442;85;21096;-94
2022/06/25 10:32:17;;;;;;;2.87;2.15;;;;;;;27.98;37.08;101195.20;1679641;84;21120;-93
2022/06/25 10:34:58;;;;;;;3.05;2.30;;;;;;;27.95;36.98;101200.28;1682987;83;20947;-93
2022/06/25 10:38:23;;;;;;;4.67;2.72;;;;;;;27.99;37.33;101197.85;1655608;85;21064;-95
2022/06/25 10:42:58;;;;;;;2.35;2.15;;;;;;;28.05;37.48;101198.08;1706675;83;21068;-94
2022/06/25 10:43:54;;;;;;;3.70;2.25;;;;;;;28.15;37.27;101199.92;1697672;82;21802;-96
2022/06/25 10:46:50;;;;;;;6.00;2.52;;;;;;;28.14;37.20;101193.64;1692148;82;21188;-93
2022/06/25 10:49:22;;;;;;;3.87;2.45;;;;;;;28.11;36.96;101189.22;1683716;82;21157;-88
2022/06/25 10:51:52;;;;;;;4.35;2.30;;;;;;;28.07;37.10;101197.05;1705319;82;21240;-86
2022/06/25 10:54:30;;;;;;;6.47;3.10;;;;;;;28.11;37.30;101185.16;1705900;82;21071;-94
2022/06/25 10:57:02;;;;;;;5.53;2.65;;;;;;;28.13;37.53;101183.74;1703938;82;22416;-94
2022/06/25 10:59:49;;;;;;;6.90;2.83;;;;;;;28.06;37.91;101170.95;1658362;83;21159;-93
2022/06/25 11:02:18;;;;;;;2.62;2.42;;;;;;;28.15;38.18;101180.50;1707371;82;21226;-94
2022/06/25 11:04:54;;;;;;;3.58;2.80;;;;;;;28.20;38.24;101175.78;1684581;83;21075;-96
2022/06/25 11:11:55;;;;;;;3.10;2.40;;;;;;;28.26;38.43;101183.63;1648263;83;23186;-95
2022/06/25 11:14:39;;;;;;;3.85;2.72;;;;;;;28.21;38.28;101183.42;1679347;82;21280;-92
2022/06/25 11:17:23;;;;;;;4.42;2.58;;;;;;;28.15;38.49;101174.21;1653228;84;21137;-96
2022/06/25 11:20:29;;;;;;;5.17;3.15;;;;;;;28.17;38.38;101168.26;1561540;88;21413;-96
2022/06/25 11:23:47;;;;;;;;;;;;;;;;;;;;;
2022/06/25 11:45:12;;;;;;;2.55;2.35;;;;;;;28.06;38.01;101171.41;1382600;99;21817;-88
2022/06/25 11:50:59;;;;;;;3.25;2.40;;;;;;;28.21;37.93;101173.95;1341840;99;21770;-89
2022/06/25 11:54:16;;;;;;;2.80;2.30;;;;;;;28.21;37.62;101179.36;1399761;101;21246;-90
2022/06/25 12:00:10;;;;;;;3.55;2.08;;;;;;;28.26;37.69;101174.64;1328119;105;21232;-89
2022/06/25 12:03:10;;;;;;;3.05;2.30;;;;;;;28.30;37.66;101176.27;1337473;105;21257;-92
2022/06/25 12:08:56;;;;;;;2.35;2.15;;;;;;;28.46;37.85;101179.22;1312537;105;21164;-90
2022/06/25 12:15:06;;;;;;;;;;;;;;;;;;;;;
2022/06/25 12:20:53;;;;;;;3.37;2.60;;;;;;;28.48;37.43;101175.97;1336333;103;21428;-89
2022/06/25 12:24:04;;;;;;;;;;;;;;;;;;;;;
2022/06/25 12:27:05;;;;;;;;;;;;;;;;;;;;;
2022/06/25 12:29:40;;;;;;;2.80;2.35;;;;;;;28.47;36.91;101178.25;1312425;106;21269;-90
2022/06/25 12:33:03;;;;;;;;;;;;;;;;;;;;;
2022/06/25 12:35:33;;;;;;;2.85;2.22;;;;;;;28.48;36.95;101173.27;1359419;101;21233;-90
2022/06/25 12:38:20;;;;;;;3.67;3.33;;;;;;;28.54;37.28;101181.14;1400362;99;21179;-91
2022/06/25 12:40:57;;;;;;;3.12;2.87;;;;;;;28.52;37.12;101180.78;1461676;93;21170;-90
2022/06/25 12:43:49;;;;;;;2.50;2.30;;;;;;;28.49;37.36;101177.71;1491095;94;21184;-89
2022/06/25 12:46:36;;;;;;;2.60;2.40;;;;;;;28.54;37.18;101176.20;1501434;93;21162;-89
2022/06/25 12:49:15;;;;;;;2.60;2.40;;;;;;;28.55;37.14;101173.89;1504148;92;21209;-89
2022/06/25 12:51:44;;;;;;;4.00;2.20;;;;;;;28.54;36.94;101174.86;1531987;89;21165;-89
2022/06/25 12:54:22;;;;;;;3.08;2.00;;;;;;;28.57;36.78;101171.55;1567240;89;22499;-90
2022/06/25 12:57:11;;;;;;;3.33;2.45;;;;;;;28.59;36.86;101171.00;1565352;90;21203;-89
2022/06/25 12:59:53;;;;;;;3.98;2.15;;;;;;;28.60;36.59;101177.29;1600762;87;21087;-90
2022/06/25 13:02:25;;;;;;;4.12;2.20;;;;;;;28.64;36.46;101176.20;1643259;84;21540;-90
2022/06/25 13:04:59;;;;;;;2.25;1.98;;;;;;;28.67;36.19;101172.89;1642338;85;21731;-91
2022/06/25 13:07:32;;;;;;;3.33;2.22;;;;;;;28.62;36.21;101146.95;1672730;84;21728;-90
2022/06/25 13:10:02;;;;;;;2.50;2.00;;;;;;;28.80;36.37;101165.10;1648417;85;21072;-90
2022/06/25 13:12:38;;;;;;;2.33;2.02;;;;;;;28.88;36.27;101161.56;1669635;84;21076;-90
2022/06/25 13:15:06;;;;;;;3.22;2.15;;;;;;;28.96;36.50;101161.69;1673671;83;20994;-90
2022/06/25 13:17:33;;;;;;;3.40;2.77;;;;;;;29.02;36.22;101164.15;1677341;84;21533;-91
2022/06/25 13:19:59;;;;;;;5.40;2.77;;;;;;;29.07;36.13;101162.98;1673889;84;21750;-91
2022/06/25 13:22:26;;;;;;;4.33;2.83;;;;;;;29.09;35.85;101166.95;1681425;85;21046;-91
2022/06/25 13:24:53;;;;;;;2.90;2.27;;;;;;;29.07;35.74;101168.86;1681189;83;21524;-90
2022/06/25 13:27:23;;;;;;;4.37;2.37;;;;;;;29.07;35.55;101171.56;1677226;83;21140;-89
2022/06/25 13:29:50;;;;;;;4.97;2.35;;;;;;;29.06;35.26;101173.41;1680465;83;21084;-91
2022/06/25 13:32:17;;;;;;;5.50;2.20;;;;;;;29.06;35.25;101175.25;1680566;83;21764;-90
2022/06/25 13:34:53;;;;;;;3.30;2.58;;;;;;;29.07;35.22;101170.21;1663753;85;21066;-90
2022/06/25 13:37:20;;;;;;;4.72;2.60;;;;;;;29.07;35.19;101167.50;1677726;84;21084;-90